sensor_id;sensor_type;location;lat;lon;timestamp;P1;durP1;ratioP1;P2;durP2;ratioP2
62903;SDS011;49000;50.698;13.322;2022-07-18T00:01:36;1.40;;;0.70;;
62903;SDS011;49000;50.698;13.322;2022-07-18T00:04:02;0.70;;;0.60;;
62903;SDS011;49000;50.698;13.322;2022-07-18T00:06:27;0.90;;;0.60;;
62903;SDS011;49000;50.698;13.322;2022-07-18T00:08:53;1.17;;;0.70;;
62903;SDS011;49000;50.698;13.322;2022-07-18T00:11:19;1.37;;;0.80;;
62903;SDS011;49000;50.698;13.322;2022-07-18T00:13:45;1.33;;;0.70;;
62903;SDS011;49000;50.698;13.322;2022-07-18T00:16:11;1.27;;;0.63;;
62903;SDS011;49000;50.698;13.322;2022-07-18T00:18:36;1.00;;;0.60;;
62903;SDS011;49000;50.698;13.322;2022-07-18T00:21:02;1.53;;;0.67;;
62903;SDS011;49000;50.698;13.322;2022-07-18T00:23:28;1.17;;;0.70;;
62903;SDS011;49000;50.698;13.322;2022-07-18T00:25:53;1.30;;;0.70;;
62903;SDS011;49000;50.698;13.322;2022-07-18T00:28:18;0.90;;;0.70;;
62903;SDS011;49000;50.698;13.322;2022-07-18T00:30:44;2.07;;;0.50;;
62903;SDS011;49000;50.698;13.322;2022-07-18T00:33:09;1.90;;;0.60;;
62903;SDS011;49000;50.698;13.322;2022-07-18T00:35:35;0.57;;;0.43;;
62903;SDS011;49000;50.698;13.322;2022-07-18T00:38:01;0.93;;;0.70;;
62903;SDS011;49000;50.698;13.322;2022-07-18T00:40:27;0.60;;;0.60;;
62903;SDS011;49000;50.698;13.322;2022-07-18T00:42:53;1.03;;;0.70;;
62903;SDS011;49000;50.698;13.322;2022-07-18T00:45:19;1.10;;;0.80;;
62903;SDS011;49000;50.698;13.322;2022-07-18T00:47:44;1.27;;;0.90;;
62903;SDS011;49000;50.698;13.322;2022-07-18T00:50:10;0.90;;;0.63;;
62903;SDS011;49000;50.698;13.322;2022-07-18T00:52:36;0.70;;;0.53;;
62903;SDS011;49000;50.698;13.322;2022-07-18T00:55:03;0.93;;;0.53;;
62903;SDS011;49000;50.698;13.322;2022-07-18T00:57:30;1.07;;;0.70;;
62903;SDS011;49000;50.698;13.322;2022-07-18T00:59:56;1.43;;;0.60;;
62903;SDS011;49000;50.698;13.322;2022-07-18T01:02:40;0.47;;;0.47;;
62903;SDS011;49000;50.698;13.322;2022-07-18T01:05:06;1.23;;;0.83;;
62903;SDS011;49000;50.698;13.322;2022-07-18T01:07:32;2.40;;;0.80;;
62903;SDS011;49000;50.698;13.322;2022-07-18T01:09:59;1.47;;;0.50;;
62903;SDS011;49000;50.698;13.322;2022-07-18T01:12:25;0.80;;;0.50;;
62903;SDS011;49000;50.698;13.322;2022-07-18T01:14:51;0.80;;;0.63;;
62903;SDS011;49000;50.698;13.322;2022-07-18T01:17:17;1.00;;;0.73;;
62903;SDS011;49000;50.698;13.322;2022-07-18T01:19:46;1.57;;;1.03;;
62903;SDS011;49000;50.698;13.322;2022-07-18T01:22:13;1.73;;;0.70;;
62903;SDS011;49000;50.698;13.322;2022-07-18T01:24:40;0.80;;;0.70;;
62903;SDS011;49000;50.698;13.322;2022-07-18T01:27:06;0.60;;;0.60;;
62903;SDS011;49000;50.698;13.322;2022-07-18T01:29:32;1.00;;;0.70;;
62903;SDS011;49000;50.698;13.322;2022-07-18T01:32:07;0.60;;;0.50;;
62903;SDS011;49000;50.698;13.322;2022-07-18T01:34:34;0.60;;;0.60;;
62903;SDS011;49000;50.698;13.322;2022-07-18T01:37:02;1.33;;;0.60;;
62903;SDS011;49000;50.698;13.322;2022-07-18T01:39:28;0.80;;;0.60;;
62903;SDS011;49000;50.698;13.322;2022-07-18T01:41:54;1.33;;;0.70;;
62903;SDS011;49000;50.698;13.322;2022-07-18T01:44:21;1.73;;;0.53;;
62903;SDS011;49000;50.698;13.322;2022-07-18T01:46:46;1.07;;;0.60;;
62903;SDS011;49000;50.698;13.322;2022-07-18T01:49:12;1.23;;;0.60;;
62903;SDS011;49000;50.698;13.322;2022-07-18T01:51:37;1.23;;;0.63;;
62903;SDS011;49000;50.698;13.322;2022-07-18T01:54:02;1.17;;;0.63;;
62903;SDS011;49000;50.698;13.322;2022-07-18T01:56:28;1.13;;;0.73;;
62903;SDS011;49000;50.698;13.322;2022-07-18T01:58:53;1.00;;;0.70;;
62903;SDS011;49000;50.698;13.322;2022-07-18T02:01:19;0.93;;;0.50;;
62903;SDS011;49000;50.698;13.322;2022-07-18T02:03:44;1.33;;;0.60;;
62903;SDS011;49000;50.698;13.322;2022-07-18T02:06:10;1.27;;;0.53;;
62903;SDS011;49000;50.698;13.322;2022-07-18T02:08:35;0.73;;;0.47;;
62903;SDS011;49000;50.698;13.322;2022-07-18T02:11:01;2.93;;;0.70;;
62903;SDS011;49000;50.698;13.322;2022-07-18T02:13:26;0.60;;;0.50;;
62903;SDS011;49000;50.698;13.322;2022-07-18T02:15:52;1.40;;;0.93;;
62903;SDS011;49000;50.698;13.322;2022-07-18T02:18:20;1.90;;;0.60;;
62903;SDS011;49000;50.698;13.322;2022-07-18T02:20:46;0.70;;;0.60;;
62903;SDS011;49000;50.698;13.322;2022-07-18T02:23:11;1.53;;;0.60;;
62903;SDS011;49000;50.698;13.322;2022-07-18T02:25:37;1.77;;;0.73;;
62903;SDS011;49000;50.698;13.322;2022-07-18T02:28:04;1.20;;;0.60;;
62903;SDS011;49000;50.698;13.322;2022-07-18T02:30:30;0.53;;;0.50;;
62903;SDS011;49000;50.698;13.322;2022-07-18T02:32:56;1.20;;;0.60;;
62903;SDS011;49000;50.698;13.322;2022-07-18T02:35:21;0.83;;;0.70;;
62903;SDS011;49000;50.698;13.322;2022-07-18T02:37:47;0.93;;;0.50;;
62903;SDS011;49000;50.698;13.322;2022-07-18T02:40:13;1.27;;;0.80;;
62903;SDS011;49000;50.698;13.322;2022-07-18T02:42:38;0.77;;;0.50;;
62903;SDS011;49000;50.698;13.322;2022-07-18T02:45:05;1.80;;;0.63;;
62903;SDS011;49000;50.698;13.322;2022-07-18T02:47:32;0.60;;;0.40;;
62903;SDS011;49000;50.698;13.322;2022-07-18T02:49:57;2.80;;;0.40;;
62903;SDS011;49000;50.698;13.322;2022-07-18T02:52:22;0.70;;;0.60;;
62903;SDS011;49000;50.698;13.322;2022-07-18T02:54:48;0.83;;;0.60;;
62903;SDS011;49000;50.698;13.322;2022-07-18T02:57:13;3.03;;;0.70;;
62903;SDS011;49000;50.698;13.322;2022-07-18T02:59:39;0.90;;;0.63;;
62903;SDS011;49000;50.698;13.322;2022-07-18T03:02:05;0.70;;;0.57;;
62903;SDS011;49000;50.698;13.322;2022-07-18T03:04:31;0.80;;;0.50;;
62903;SDS011;49000;50.698;13.322;2022-07-18T03:06:57;0.60;;;0.50;;
62903;SDS011;49000;50.698;13.322;2022-07-18T03:09:24;0.53;;;0.50;;
62903;SDS011;49000;50.698;13.322;2022-07-18T03:11:52;2.10;;;0.70;;
62903;SDS011;49000;50.698;13.322;2022-07-18T03:14:19;1.07;;;0.70;;
62903;SDS011;49000;50.698;13.322;2022-07-18T03:16:45;1.10;;;0.50;;
62903;SDS011;49000;50.698;13.322;2022-07-18T03:19:10;0.63;;;0.40;;
62903;SDS011;49000;50.698;13.322;2022-07-18T03:21:36;0.50;;;0.50;;
62903;SDS011;49000;50.698;13.322;2022-07-18T03:24:01;1.00;;;0.50;;
62903;SDS011;49000;50.698;13.322;2022-07-18T03:26:27;1.13;;;0.70;;
62903;SDS011;49000;50.698;13.322;2022-07-18T03:28:52;0.30;;;0.30;;
62903;SDS011;49000;50.698;13.322;2022-07-18T03:31:18;0.57;;;0.47;;
62903;SDS011;49000;50.698;13.322;2022-07-18T03:33:44;0.60;;;0.50;;
62903;SDS011;49000;50.698;13.322;2022-07-18T03:36:10;0.80;;;0.60;;
62903;SDS011;49000;50.698;13.322;2022-07-18T03:38:35;0.97;;;0.60;;
62903;SDS011;49000;50.698;13.322;2022-07-18T03:41:01;0.60;;;0.60;;
62903;SDS011;49000;50.698;13.322;2022-07-18T03:43:28;1.87;;;0.80;;
62903;SDS011;49000;50.698;13.322;2022-07-18T03:45:53;1.27;;;0.80;;
62903;SDS011;49000;50.698;13.322;2022-07-18T03:48:19;2.40;;;0.70;;
62903;SDS011;49000;50.698;13.322;2022-07-18T03:50:44;1.07;;;0.80;;
62903;SDS011;49000;50.698;13.322;2022-07-18T03:53:10;2.30;;;0.97;;
62903;SDS011;49000;50.698;13.322;2022-07-18T03:55:35;1.10;;;0.90;;
62903;SDS011;49000;50.698;13.322;2022-07-18T03:58:01;3.73;;;0.70;;
62903;SDS011;49000;50.698;13.322;2022-07-18T04:00:27;1.70;;;1.00;;
62903;SDS011;49000;50.698;13.322;2022-07-18T04:02:53;1.80;;;0.83;;
62903;SDS011;49000;50.698;13.322;2022-07-18T04:05:18;1.30;;;0.60;;
62903;SDS011;49000;50.698;13.322;2022-07-18T04:07:44;1.00;;;0.80;;
62903;SDS011;49000;50.698;13.322;2022-07-18T04:10:10;1.30;;;0.80;;
62903;SDS011;49000;50.698;13.322;2022-07-18T04:12:49;0.93;;;0.60;;
62903;SDS011;49000;50.698;13.322;2022-07-18T04:15:20;2.10;;;0.63;;
62903;SDS011;49000;50.698;13.322;2022-07-18T04:17:48;0.60;;;0.60;;
62903;SDS011;49000;50.698;13.322;2022-07-18T04:20:14;1.30;;;0.70;;
62903;SDS011;49000;50.698;13.322;2022-07-18T04:22:47;1.23;;;0.60;;
62903;SDS011;49000;50.698;13.322;2022-07-18T04:25:20;0.70;;;0.50;;
62903;SDS011;49000;50.698;13.322;2022-07-18T04:27:48;1.13;;;0.50;;
62903;SDS011;49000;50.698;13.322;2022-07-18T04:30:15;0.80;;;0.50;;
62903;SDS011;49000;50.698;13.322;2022-07-18T04:32:42;0.87;;;0.43;;
62903;SDS011;49000;50.698;13.322;2022-07-18T04:35:08;1.43;;;0.80;;
62903;SDS011;49000;50.698;13.322;2022-07-18T04:37:34;1.10;;;0.50;;
62903;SDS011;49000;50.698;13.322;2022-07-18T04:40:00;1.37;;;0.70;;
62903;SDS011;49000;50.698;13.322;2022-07-18T04:42:26;0.80;;;0.50;;
62903;SDS011;49000;50.698;13.322;2022-07-18T04:44:52;1.83;;;0.47;;
62903;SDS011;49000;50.698;13.322;2022-07-18T04:47:18;3.97;;;0.73;;
62903;SDS011;49000;50.698;13.322;2022-07-18T04:49:44;0.90;;;0.50;;
62903;SDS011;49000;50.698;13.322;2022-07-18T04:52:09;0.83;;;0.60;;
62903;SDS011;49000;50.698;13.322;2022-07-18T04:54:35;1.67;;;0.80;;
62903;SDS011;49000;50.698;13.322;2022-07-18T04:57:00;0.67;;;0.53;;
62903;SDS011;49000;50.698;13.322;2022-07-18T04:59:26;1.10;;;0.60;;
62903;SDS011;49000;50.698;13.322;2022-07-18T05:01:51;1.00;;;0.70;;
62903;SDS011;49000;50.698;13.322;2022-07-18T05:04:17;1.00;;;0.70;;
62903;SDS011;49000;50.698;13.322;2022-07-18T05:06:42;1.37;;;0.70;;
62903;SDS011;49000;50.698;13.322;2022-07-18T05:09:08;0.70;;;0.57;;
62903;SDS011;49000;50.698;13.322;2022-07-18T05:11:33;0.93;;;0.73;;
62903;SDS011;49000;50.698;13.322;2022-07-18T05:13:59;0.90;;;0.70;;
62903;SDS011;49000;50.698;13.322;2022-07-18T05:16:24;0.70;;;0.67;;
62903;SDS011;49000;50.698;13.322;2022-07-18T05:18:50;0.80;;;0.60;;
62903;SDS011;49000;50.698;13.322;2022-07-18T05:21:15;1.27;;;0.80;;
62903;SDS011;49000;50.698;13.322;2022-07-18T05:23:41;1.10;;;0.63;;
62903;SDS011;49000;50.698;13.322;2022-07-18T05:26:06;1.00;;;0.80;;
62903;SDS011;49000;50.698;13.322;2022-07-18T05:28:32;0.73;;;0.50;;
62903;SDS011;49000;50.698;13.322;2022-07-18T05:30:57;1.90;;;0.73;;
62903;SDS011;49000;50.698;13.322;2022-07-18T05:33:24;1.03;;;0.60;;
62903;SDS011;49000;50.698;13.322;2022-07-18T05:35:49;1.20;;;0.70;;
62903;SDS011;49000;50.698;13.322;2022-07-18T05:38:15;2.07;;;0.60;;
62903;SDS011;49000;50.698;13.322;2022-07-18T05:40:40;0.60;;;0.50;;
62903;SDS011;49000;50.698;13.322;2022-07-18T05:43:05;1.03;;;0.70;;
62903;SDS011;49000;50.698;13.322;2022-07-18T05:45:31;0.73;;;0.53;;
62903;SDS011;49000;50.698;13.322;2022-07-18T05:47:57;1.00;;;0.60;;
62903;SDS011;49000;50.698;13.322;2022-07-18T05:50:22;0.80;;;0.50;;
62903;SDS011;49000;50.698;13.322;2022-07-18T05:52:49;1.13;;;0.63;;
62903;SDS011;49000;50.698;13.322;2022-07-18T05:55:15;0.73;;;0.50;;
62903;SDS011;49000;50.698;13.322;2022-07-18T05:57:40;0.97;;;0.70;;
62903;SDS011;49000;50.698;13.322;2022-07-18T06:00:07;0.90;;;0.60;;
62903;SDS011;49000;50.698;13.322;2022-07-18T06:02:34;4.40;;;0.80;;
62903;SDS011;49000;50.698;13.322;2022-07-18T06:05:00;2.37;;;1.00;;
62903;SDS011;49000;50.698;13.322;2022-07-18T06:07:25;1.77;;;0.80;;
62903;SDS011;49000;50.698;13.322;2022-07-18T06:09:51;1.03;;;0.83;;
62903;SDS011;49000;50.698;13.322;2022-07-18T06:12:16;0.80;;;0.50;;
62903;SDS011;49000;50.698;13.322;2022-07-18T06:14:42;1.23;;;0.50;;
62903;SDS011;49000;50.698;13.322;2022-07-18T06:17:08;1.63;;;0.80;;
62903;SDS011;49000;50.698;13.322;2022-07-18T06:19:33;1.70;;;0.90;;
62903;SDS011;49000;50.698;13.322;2022-07-18T06:21:59;1.93;;;0.90;;
62903;SDS011;49000;50.698;13.322;2022-07-18T06:24:24;0.87;;;0.70;;
62903;SDS011;49000;50.698;13.322;2022-07-18T06:26:50;0.60;;;0.50;;
62903;SDS011;49000;50.698;13.322;2022-07-18T06:29:16;0.97;;;0.80;;
62903;SDS011;49000;50.698;13.322;2022-07-18T06:31:42;0.93;;;0.70;;
62903;SDS011;49000;50.698;13.322;2022-07-18T06:34:07;1.63;;;0.70;;
62903;SDS011;49000;50.698;13.322;2022-07-18T06:36:33;1.33;;;0.80;;
62903;SDS011;49000;50.698;13.322;2022-07-18T06:38:58;0.57;;;0.50;;
62903;SDS011;49000;50.698;13.322;2022-07-18T06:41:24;2.73;;;0.60;;
62903;SDS011;49000;50.698;13.322;2022-07-18T06:43:49;0.80;;;0.60;;
62903;SDS011;49000;50.698;13.322;2022-07-18T06:46:15;1.98;;;0.70;;
62903;SDS011;49000;50.698;13.322;2022-07-18T06:48:40;1.23;;;0.80;;
62903;SDS011;49000;50.698;13.322;2022-07-18T06:51:07;0.90;;;0.60;;
62903;SDS011;49000;50.698;13.322;2022-07-18T06:53:33;2.75;;;0.70;;
62903;SDS011;49000;50.698;13.322;2022-07-18T06:55:59;1.15;;;0.60;;
62903;SDS011;49000;50.698;13.322;2022-07-18T06:58:27;0.93;;;0.60;;
62903;SDS011;49000;50.698;13.322;2022-07-18T07:00:55;1.50;;;0.85;;
62903;SDS011;49000;50.698;13.322;2022-07-18T07:03:21;1.15;;;0.85;;
62903;SDS011;49000;50.698;13.322;2022-07-18T07:05:47;1.17;;;0.70;;
62903;SDS011;49000;50.698;13.322;2022-07-18T07:08:12;1.00;;;0.88;;
62903;SDS011;49000;50.698;13.322;2022-07-18T07:10:38;1.38;;;0.90;;
62903;SDS011;49000;50.698;13.322;2022-07-18T07:13:04;1.55;;;0.70;;
62903;SDS011;49000;50.698;13.322;2022-07-18T07:15:29;0.98;;;0.70;;
62903;SDS011;49000;50.698;13.322;2022-07-18T07:17:55;0.82;;;0.60;;
62903;SDS011;49000;50.698;13.322;2022-07-18T07:20:20;1.92;;;0.90;;
62903;SDS011;49000;50.698;13.322;2022-07-18T07:22:56;1.05;;;0.80;;
62903;SDS011;49000;50.698;13.322;2022-07-18T07:25:23;2.53;;;0.70;;
62903;SDS011;49000;50.698;13.322;2022-07-18T07:27:50;0.95;;;0.60;;
62903;SDS011;49000;50.698;13.322;2022-07-18T07:30:19;1.10;;;0.80;;
62903;SDS011;49000;50.698;13.322;2022-07-18T07:32:45;3.25;;;0.75;;
62903;SDS011;49000;50.698;13.322;2022-07-18T07:35:13;2.60;;;1.00;;
62903;SDS011;49000;50.698;13.322;2022-07-18T07:38:01;1.50;;;1.15;;
62903;SDS011;49000;50.698;13.322;2022-07-18T07:40:27;1.20;;;0.80;;
62903;SDS011;49000;50.698;13.322;2022-07-18T07:43:06;0.85;;;0.80;;
62903;SDS011;49000;50.698;13.322;2022-07-18T07:45:33;2.83;;;0.93;;
62903;SDS011;49000;50.698;13.322;2022-07-18T07:47:59;0.75;;;0.75;;
62903;SDS011;49000;50.698;13.322;2022-07-18T07:50:24;1.55;;;0.85;;
62903;SDS011;49000;50.698;13.322;2022-07-18T07:52:50;2.70;;;0.90;;
62903;SDS011;49000;50.698;13.322;2022-07-18T07:55:15;1.88;;;0.82;;
62903;SDS011;49000;50.698;13.322;2022-07-18T07:57:41;2.33;;;1.00;;
62903;SDS011;49000;50.698;13.322;2022-07-18T08:00:07;2.20;;;1.08;;
62903;SDS011;49000;50.698;13.322;2022-07-18T08:02:34;1.27;;;0.80;;
62903;SDS011;49000;50.698;13.322;2022-07-18T08:05:00;0.80;;;0.77;;
62903;SDS011;49000;50.698;13.322;2022-07-18T08:07:26;0.98;;;0.82;;
62903;SDS011;49000;50.698;13.322;2022-07-18T08:09:51;2.55;;;0.80;;
62903;SDS011;49000;50.698;13.322;2022-07-18T08:12:17;3.40;;;0.98;;
62903;SDS011;49000;50.698;13.322;2022-07-18T08:14:42;1.17;;;0.80;;
62903;SDS011;49000;50.698;13.322;2022-07-18T08:17:08;4.70;;;1.38;;
62903;SDS011;49000;50.698;13.322;2022-07-18T08:19:33;2.25;;;1.00;;
62903;SDS011;49000;50.698;13.322;2022-07-18T08:21:59;0.63;;;0.63;;
62903;SDS011;49000;50.698;13.322;2022-07-18T08:24:24;1.17;;;0.80;;
62903;SDS011;49000;50.698;13.322;2022-07-18T08:26:50;1.38;;;1.00;;
62903;SDS011;49000;50.698;13.322;2022-07-18T08:29:15;0.70;;;0.70;;
62903;SDS011;49000;50.698;13.322;2022-07-18T08:31:41;2.42;;;1.20;;
62903;SDS011;49000;50.698;13.322;2022-07-18T08:34:06;2.83;;;1.08;;
62903;SDS011;49000;50.698;13.322;2022-07-18T08:36:32;1.58;;;1.05;;
62903;SDS011;49000;50.698;13.322;2022-07-18T08:38:58;2.40;;;0.98;;
62903;SDS011;49000;50.698;13.322;2022-07-18T08:41:23;0.80;;;0.80;;
62903;SDS011;49000;50.698;13.322;2022-07-18T08:43:49;2.42;;;0.90;;
62903;SDS011;49000;50.698;13.322;2022-07-18T08:46:17;2.05;;;0.80;;
62903;SDS011;49000;50.698;13.322;2022-07-18T08:48:45;1.08;;;0.90;;
62903;SDS011;49000;50.698;13.322;2022-07-18T08:51:11;2.15;;;0.95;;
62903;SDS011;49000;50.698;13.322;2022-07-18T08:53:37;1.00;;;0.90;;
62903;SDS011;49000;50.698;13.322;2022-07-18T08:56:03;1.60;;;0.90;;
62903;SDS011;49000;50.698;13.322;2022-07-18T08:58:29;1.58;;;0.93;;
62903;SDS011;49000;50.698;13.322;2022-07-18T09:00:55;0.80;;;0.77;;
62903;SDS011;49000;50.698;13.322;2022-07-18T09:03:23;1.23;;;0.90;;
62903;SDS011;49000;50.698;13.322;2022-07-18T09:05:59;2.25;;;1.02;;
62903;SDS011;49000;50.698;13.322;2022-07-18T09:08:38;0.98;;;0.82;;
62903;SDS011;49000;50.698;13.322;2022-07-18T09:11:08;1.00;;;0.90;;
62903;SDS011;49000;50.698;13.322;2022-07-18T09:13:39;1.02;;;0.93;;
62903;SDS011;49000;50.698;13.322;2022-07-18T09:18:41;0.85;;;0.70;;
62903;SDS011;49000;50.698;13.322;2022-07-18T09:21:13;1.00;;;0.90;;
62903;SDS011;49000;50.698;13.322;2022-07-18T09:23:45;0.93;;;0.82;;
62903;SDS011;49000;50.698;13.322;2022-07-18T09:26:33;2.13;;;1.13;;
62903;SDS011;49000;50.698;13.322;2022-07-18T09:29:02;1.58;;;0.90;;
62903;SDS011;49000;50.698;13.322;2022-07-18T09:31:28;1.30;;;0.95;;
62903;SDS011;49000;50.698;13.322;2022-07-18T09:33:55;1.92;;;1.10;;
62903;SDS011;49000;50.698;13.322;2022-07-18T09:36:22;2.05;;;0.98;;
62903;SDS011;49000;50.698;13.322;2022-07-18T09:38:48;1.55;;;1.00;;
62903;SDS011;49000;50.698;13.322;2022-07-18T09:41:14;1.40;;;1.10;;
62903;SDS011;49000;50.698;13.322;2022-07-18T09:43:40;1.42;;;1.15;;
62903;SDS011;49000;50.698;13.322;2022-07-18T09:46:06;1.88;;;1.67;;
62903;SDS011;49000;50.698;13.322;2022-07-18T09:48:32;1.67;;;1.10;;
62903;SDS011;49000;50.698;13.322;2022-07-18T09:50:59;1.60;;;0.93;;
62903;SDS011;49000;50.698;13.322;2022-07-18T09:53:26;1.20;;;0.90;;
62903;SDS011;49000;50.698;13.322;2022-07-18T09:55:57;1.15;;;1.02;;
62903;SDS011;49000;50.698;13.322;2022-07-18T09:58:25;1.10;;;1.00;;
62903;SDS011;49000;50.698;13.322;2022-07-18T10:00:56;1.08;;;0.90;;
62903;SDS011;49000;50.698;13.322;2022-07-18T10:03:23;1.42;;;1.00;;
62903;SDS011;49000;50.698;13.322;2022-07-18T10:05:50;1.38;;;0.90;;
62903;SDS011;49000;50.698;13.322;2022-07-18T10:08:17;2.25;;;1.10;;
62903;SDS011;49000;50.698;13.322;2022-07-18T10:10:45;1.63;;;1.10;;
62903;SDS011;49000;50.698;13.322;2022-07-18T10:13:13;1.42;;;1.10;;
62903;SDS011;49000;50.698;13.322;2022-07-18T10:15:41;0.88;;;0.82;;
62903;SDS011;49000;50.698;13.322;2022-07-18T10:18:13;1.13;;;0.98;;
62903;SDS011;49000;50.698;13.322;2022-07-18T10:20:47;2.25;;;1.10;;
62903;SDS011;49000;50.698;13.322;2022-07-18T10:23:16;1.13;;;1.00;;
62903;SDS011;49000;50.698;13.322;2022-07-18T10:25:45;1.95;;;0.90;;
62903;SDS011;49000;50.698;13.322;2022-07-18T10:36:38;1.52;;;1.33;;
62903;SDS011;49000;50.698;13.322;2022-07-18T10:57:37;1.08;;;1.00;;
62903;SDS011;49000;50.698;13.322;2022-07-18T11:00:10;1.70;;;1.23;;
62903;SDS011;49000;50.698;13.322;2022-07-18T11:02:45;1.05;;;1.00;;
62903;SDS011;49000;50.698;13.322;2022-07-18T11:13:20;1.20;;;1.05;;
62903;SDS011;49000;50.698;13.322;2022-07-18T11:15:56;1.10;;;1.00;;
62903;SDS011;49000;50.698;13.322;2022-07-18T11:18:30;1.30;;;1.20;;
62903;SDS011;49000;50.698;13.322;2022-07-18T11:20:56;1.98;;;1.10;;
62903;SDS011;49000;50.698;13.322;2022-07-18T11:23:22;1.17;;;0.95;;
62903;SDS011;49000;50.698;13.322;2022-07-18T11:25:53;1.67;;;1.10;;
62903;SDS011;49000;50.698;13.322;2022-07-18T11:28:21;1.25;;;1.02;;
62903;SDS011;49000;50.698;13.322;2022-07-18T11:31:00;1.23;;;1.13;;
62903;SDS011;49000;50.698;13.322;2022-07-18T11:33:31;1.92;;;1.08;;
62903;SDS011;49000;50.698;13.322;2022-07-18T11:36:05;1.10;;;1.00;;
62903;SDS011;49000;50.698;13.322;2022-07-18T11:38:39;1.63;;;1.52;;
62903;SDS011;49000;50.698;13.322;2022-07-18T11:41:11;2.10;;;1.50;;
62903;SDS011;49000;50.698;13.322;2022-07-18T11:43:36;1.27;;;1.17;;
62903;SDS011;49000;50.698;13.322;2022-07-18T11:46:06;1.83;;;0.93;;
62903;SDS011;49000;50.698;13.322;2022-07-18T11:48:33;1.27;;;1.08;;
62903;SDS011;49000;50.698;13.322;2022-07-18T11:51:00;1.77;;;1.15;;
62903;SDS011;49000;50.698;13.322;2022-07-18T11:53:26;1.92;;;1.20;;
62903;SDS011;49000;50.698;13.322;2022-07-18T11:55:52;2.30;;;1.20;;
62903;SDS011;49000;50.698;13.322;2022-07-18T11:58:19;0.93;;;0.93;;
62903;SDS011;49000;50.698;13.322;2022-07-18T12:00:45;2.15;;;1.17;;
62903;SDS011;49000;50.698;13.322;2022-07-18T12:03:12;1.52;;;1.10;;
62903;SDS011;49000;50.698;13.322;2022-07-18T12:05:40;2.63;;;1.25;;
62903;SDS011;49000;50.698;13.322;2022-07-18T12:14:00;1.85;;;1.30;;
62903;SDS011;49000;50.698;13.322;2022-07-18T12:16:39;1.48;;;1.17;;
62903;SDS011;49000;50.698;13.322;2022-07-18T12:19:13;1.15;;;1.05;;
62903;SDS011;49000;50.698;13.322;2022-07-18T12:21:56;1.15;;;1.05;;
62903;SDS011;49000;50.698;13.322;2022-07-18T12:24:32;1.15;;;1.05;;
62903;SDS011;49000;50.698;13.322;2022-07-18T12:40:21;1.40;;;1.15;;
62903;SDS011;49000;50.698;13.322;2022-07-18T12:42:47;1.30;;;1.20;;
62903;SDS011;49000;50.698;13.322;2022-07-18T12:45:14;0.90;;;0.90;;
62903;SDS011;49000;50.698;13.322;2022-07-18T12:47:40;1.08;;;1.00;;
62903;SDS011;49000;50.698;13.322;2022-07-18T12:50:06;3.75;;;1.20;;
62903;SDS011;49000;50.698;13.322;2022-07-18T12:52:32;1.95;;;1.10;;
62903;SDS011;49000;50.698;13.322;2022-07-18T12:54:58;1.40;;;1.30;;
62903;SDS011;49000;50.698;13.322;2022-07-18T12:57:24;1.45;;;1.10;;
62903;SDS011;49000;50.698;13.322;2022-07-18T12:59:50;1.80;;;1.00;;
62903;SDS011;49000;50.698;13.322;2022-07-18T13:02:16;1.25;;;1.10;;
62903;SDS011;49000;50.698;13.322;2022-07-18T13:04:42;1.45;;;1.10;;
62903;SDS011;49000;50.698;13.322;2022-07-18T13:07:08;1.48;;;1.10;;
62903;SDS011;49000;50.698;13.322;2022-07-18T13:09:34;0.90;;;0.90;;
62903;SDS011;49000;50.698;13.322;2022-07-18T13:11:59;1.20;;;1.10;;
62903;SDS011;49000;50.698;13.322;2022-07-18T13:14:25;1.20;;;1.10;;
62903;SDS011;49000;50.698;13.322;2022-07-18T13:16:51;1.17;;;1.00;;
62903;SDS011;49000;50.698;13.322;2022-07-18T13:19:17;1.20;;;1.10;;
62903;SDS011;49000;50.698;13.322;2022-07-18T13:21:44;1.13;;;1.10;;
62903;SDS011;49000;50.698;13.322;2022-07-18T13:24:10;1.63;;;1.25;;
62903;SDS011;49000;50.698;13.322;2022-07-18T13:26:37;1.60;;;1.15;;
62903;SDS011;49000;50.698;13.322;2022-07-18T13:29:03;1.40;;;1.30;;
62903;SDS011;49000;50.698;13.322;2022-07-18T13:31:29;1.25;;;1.13;;
62903;SDS011;49000;50.698;13.322;2022-07-18T13:33:55;2.47;;;1.35;;
62903;SDS011;49000;50.698;13.322;2022-07-18T13:36:20;1.25;;;1.00;;
62903;SDS011;49000;50.698;13.322;2022-07-18T13:38:46;1.65;;;1.30;;
62903;SDS011;49000;50.698;13.322;2022-07-18T13:41:11;1.23;;;1.13;;
62903;SDS011;49000;50.698;13.322;2022-07-18T13:43:37;1.10;;;1.00;;
62903;SDS011;49000;50.698;13.322;2022-07-18T13:46:06;1.25;;;1.13;;
62903;SDS011;49000;50.698;13.322;2022-07-18T13:48:33;1.45;;;1.08;;
62903;SDS011;49000;50.698;13.322;2022-07-18T13:50:59;1.30;;;1.20;;
62903;SDS011;49000;50.698;13.322;2022-07-18T13:53:25;0.75;;;0.75;;
62903;SDS011;49000;50.698;13.322;2022-07-18T13:55:50;1.73;;;1.38;;
62903;SDS011;49000;50.698;13.322;2022-07-18T13:58:16;1.20;;;1.10;;
62903;SDS011;49000;50.698;13.322;2022-07-18T14:00:42;0.90;;;0.90;;
62903;SDS011;49000;50.698;13.322;2022-07-18T14:03:08;1.13;;;1.10;;
62903;SDS011;49000;50.698;13.322;2022-07-18T14:05:34;1.77;;;1.10;;
62903;SDS011;49000;50.698;13.322;2022-07-18T14:07:59;1.00;;;1.00;;
62903;SDS011;49000;50.698;13.322;2022-07-18T14:10:25;1.33;;;1.23;;
62903;SDS011;49000;50.698;13.322;2022-07-18T14:12:51;1.10;;;1.00;;
62903;SDS011;49000;50.698;13.322;2022-07-18T14:15:16;1.33;;;1.23;;
62903;SDS011;49000;50.698;13.322;2022-07-18T14:17:42;2.67;;;1.00;;
62903;SDS011;49000;50.698;13.322;2022-07-18T14:20:08;1.35;;;1.25;;
62903;SDS011;49000;50.698;13.322;2022-07-18T14:22:36;1.30;;;1.15;;
62903;SDS011;49000;50.698;13.322;2022-07-18T14:25:02;1.00;;;1.00;;
62903;SDS011;49000;50.698;13.322;2022-07-18T14:27:29;1.42;;;0.98;;
62903;SDS011;49000;50.698;13.322;2022-07-18T14:29:55;1.40;;;1.20;;
62903;SDS011;49000;50.698;13.322;2022-07-18T14:32:20;3.75;;;1.30;;
62903;SDS011;49000;50.698;13.322;2022-07-18T14:34:46;2.92;;;1.15;;
62903;SDS011;49000;50.698;13.322;2022-07-18T14:37:12;1.20;;;1.10;;
62903;SDS011;49000;50.698;13.322;2022-07-18T14:39:37;1.23;;;1.20;;
62903;SDS011;49000;50.698;13.322;2022-07-18T14:42:03;1.60;;;1.48;;
62903;SDS011;49000;50.698;13.322;2022-07-18T14:44:28;1.33;;;1.23;;
62903;SDS011;49000;50.698;13.322;2022-07-18T14:46:54;1.40;;;1.30;;
62903;SDS011;49000;50.698;13.322;2022-07-18T14:49:19;1.40;;;1.30;;
62903;SDS011;49000;50.698;13.322;2022-07-18T14:51:45;1.45;;;1.20;;
62903;SDS011;49000;50.698;13.322;2022-07-18T14:54:11;1.40;;;1.30;;
62903;SDS011;49000;50.698;13.322;2022-07-18T14:56:37;1.05;;;1.05;;
62903;SDS011;49000;50.698;13.322;2022-07-18T14:59:02;1.30;;;1.17;;
62903;SDS011;49000;50.698;13.322;2022-07-18T15:01:28;1.30;;;1.20;;
62903;SDS011;49000;50.698;13.322;2022-07-18T15:03:53;1.42;;;1.33;;
62903;SDS011;49000;50.698;13.322;2022-07-18T15:06:19;1.27;;;1.10;;
62903;SDS011;49000;50.698;13.322;2022-07-18T15:08:44;3.08;;;1.20;;
62903;SDS011;49000;50.698;13.322;2022-07-18T15:11:10;1.40;;;1.30;;
62903;SDS011;49000;50.698;13.322;2022-07-18T15:13:35;1.27;;;1.17;;
62903;SDS011;49000;50.698;13.322;2022-07-18T15:16:01;1.33;;;1.23;;
62903;SDS011;49000;50.698;13.322;2022-07-18T15:18:26;1.17;;;1.08;;
62903;SDS011;49000;50.698;13.322;2022-07-18T15:20:52;1.55;;;1.30;;
62903;SDS011;49000;50.698;13.322;2022-07-18T15:23:17;1.40;;;1.30;;
62903;SDS011;49000;50.698;13.322;2022-07-18T15:25:43;2.83;;;1.40;;
62903;SDS011;49000;50.698;13.322;2022-07-18T15:28:08;1.98;;;1.67;;